sensor_id;sensor_type;location;lat;lon;timestamp;temperature;humidity
14154;DHT22;7157;53.144;7.570;2023-12-04T00:06:25;1.10;101.19
14154;DHT22;7157;53.144;7.570;2023-12-04T00:16:29;1.12;101.66
14154;DHT22;7157;53.144;7.570;2023-12-04T00:26:35;1.16;100.91
14154;DHT22;7157;53.144;7.570;2023-12-04T00:36:39;0.92;101.67
14154;DHT22;7157;53.144;7.570;2023-12-04T00:46:42;1.18;100.88
14154;DHT22;7157;53.144;7.570;2023-12-04T00:56:46;0.99;101.67
14154;DHT22;7157;53.144;7.570;2023-12-04T01:06:49;1.10;101.12
14154;DHT22;7157;53.144;7.570;2023-12-04T01:16:54;1.10;101.66
14154;DHT22;7157;53.144;7.570;2023-12-04T01:26:56;1.18;101.45
14154;DHT22;7157;53.144;7.570;2023-12-04T01:37:00;1.26;101.84
14154;DHT22;7157;53.144;7.570;2023-12-04T01:47:04;0.99;104.40
14154;DHT22;7157;53.144;7.570;2023-12-04T01:57:09;1.02;104.44
14154;DHT22;7157;53.144;7.570;2023-12-04T02:07:12;1.02;104.56
14154;DHT22;7157;53.144;7.570;2023-12-04T02:17:17;0.83;105.72
14154;DHT22;7157;53.144;7.570;2023-12-04T02:27:25;0.86;105.98
14154;DHT22;7157;53.144;7.570;2023-12-04T02:37:29;0.90;105.94
14154;DHT22;7157;53.144;7.570;2023-12-04T02:47:33;0.87;106.21
14154;DHT22;7157;53.144;7.570;2023-12-04T02:57:36;0.98;106.24
14154;DHT22;7157;53.144;7.570;2023-12-04T03:07:40;0.84;107.41
14154;DHT22;7157;53.144;7.570;2023-12-04T03:17:43;0.98;107.40
14154;DHT22;7157;53.144;7.570;2023-12-04T03:27:47;0.90;107.62
14154;DHT22;7157;53.144;7.570;2023-12-04T03:37:50;0.86;108.69
14154;DHT22;7157;53.144;7.570;2023-12-04T03:47:54;1.05;107.08
14154;DHT22;7157;53.144;7.570;2023-12-04T03:57:57;1.05;107.81
14154;DHT22;7157;53.144;7.570;2023-12-04T04:08:02;1.06;107.89
14154;DHT22;7157;53.144;7.570;2023-12-04T04:18:07;0.97;108.72
14154;DHT22;7157;53.144;7.570;2023-12-04T04:28:11;1.02;108.91
14154;DHT22;7157;53.144;7.570;2023-12-04T04:38:14;1.04;108.78
14154;DHT22;7157;53.144;7.570;2023-12-04T04:48:18;1.06;109.07
14154;DHT22;7157;53.144;7.570;2023-12-04T04:58:21;1.20;108.34
14154;DHT22;7157;53.144;7.570;2023-12-04T05:08:25;1.11;108.29
14154;DHT22;7157;53.144;7.570;2023-12-04T05:18:28;1.27;107.53
14154;DHT22;7157;53.144;7.570;2023-12-04T05:28:32;1.23;107.59
14154;DHT22;7157;53.144;7.570;2023-12-04T05:38:35;1.29;107.02
14154;DHT22;7157;53.144;7.570;2023-12-04T05:48:39;1.28;107.35
14154;DHT22;7157;53.144;7.570;2023-12-04T05:58:42;1.38;106.77
14154;DHT22;7157;53.144;7.570;2023-12-04T06:08:47;1.45;105.94
14154;DHT22;7157;53.144;7.570;2023-12-04T06:18:50;1.43;106.05
14154;DHT22;7157;53.144;7.570;2023-12-04T06:28:56;1.45;106.44
14154;DHT22;7157;53.144;7.570;2023-12-04T06:39:01;1.46;105.94
14154;DHT22;7157;53.144;7.570;2023-12-04T06:49:09;1.60;104.28
14154;DHT22;7157;53.144;7.570;2023-12-04T06:59:14;1.67;103.76
14154;DHT22;7157;53.144;7.570;2023-12-04T07:09:18;1.61;104.39
14154;DHT22;7157;53.144;7.570;2023-12-04T07:19:22;1.86;102.44
14154;DHT22;7157;53.144;7.570;2023-12-04T07:29:27;1.72;103.48
14154;DHT22;7157;53.144;7.570;2023-12-04T07:39:30;1.54;103.50
14154;DHT22;7157;53.144;7.570;2023-12-04T07:49:34;1.65;102.29
14154;DHT22;7157;53.144;7.570;2023-12-04T07:59:37;1.58;102.22
14154;DHT22;7157;53.144;7.570;2023-12-04T08:09:41;1.72;101.77
14154;DHT22;7157;53.144;7.570;2023-12-04T08:19:44;1.67;101.54
14154;DHT22;7157;53.144;7.570;2023-12-04T08:29:52;1.79;99.78
14154;DHT22;7157;53.144;7.570;2023-12-04T08:39:55;1.93;98.84
14154;DHT22;7157;53.144;7.570;2023-12-04T08:50:00;2.11;96.89
14154;DHT22;7157;53.144;7.570;2023-12-04T09:00:04;2.10;96.91
14154;DHT22;7157;53.144;7.570;2023-12-04T09:10:08;2.19;95.88
14154;DHT22;7157;53.144;7.570;2023-12-04T09:20:26;2.13;95.53
14154;DHT22;7157;53.144;7.570;2023-12-04T09:30:30;2.32;94.88
14154;DHT22;7157;53.144;7.570;2023-12-04T09:40:33;2.42;93.57
14154;DHT22;7157;53.144;7.570;2023-12-04T09:50:38;2.47;93.35
14154;DHT22;7157;53.144;7.570;2023-12-04T10:00:41;2.62;91.62
14154;DHT22;7157;53.144;7.570;2023-12-04T10:10:46;2.68;89.97
14154;DHT22;7157;53.144;7.570;2023-12-04T10:20:51;2.88;89.09
14154;DHT22;7157;53.144;7.570;2023-12-04T10:30:56;2.78;89.57
14154;DHT22;7157;53.144;7.570;2023-12-04T10:41:12;2.97;86.87
14154;DHT22;7157;53.144;7.570;2023-12-04T10:51:17;3.02;87.28
14154;DHT22;7157;53.144;7.570;2023-12-04T11:01:21;3.24;86.83
14154;DHT22;7157;53.144;7.570;2023-12-04T11:11:30;3.26;86.86
14154;DHT22;7157;53.144;7.570;2023-12-04T11:21:34;3.41;84.97
14154;DHT22;7157;53.144;7.570;2023-12-04T11:31:39;3.35;83.68
14154;DHT22;7157;53.144;7.570;2023-12-04T11:41:42;3.50;83.15
14154;DHT22;7157;53.144;7.570;2023-12-04T11:51:46;3.29;84.71
14154;DHT22;7157;53.144;7.570;2023-12-04T12:01:56;3.35;83.97
14154;DHT22;7157;53.144;7.570;2023-12-04T12:12:01;3.34;83.71
14154;DHT22;7157;53.144;7.570;2023-12-04T12:22:04;3.39;83.26
14154;DHT22;7157;53.144;7.570;2023-12-04T12:32:09;3.74;81.10
14154;DHT22;7157;53.144;7.570;2023-12-04T12:42:11;3.65;80.21
14154;DHT22;7157;53.144;7.570;2023-12-04T12:52:25;3.52;79.36
14154;DHT22;7157;53.144;7.570;2023-12-04T13:02:28;3.67;79.91
14154;DHT22;7157;53.144;7.570;2023-12-04T13:12:32;3.59;78.56
14154;DHT22;7157;53.144;7.570;2023-12-04T13:22:35;3.39;79.46
14154;DHT22;7157;53.144;7.570;2023-12-04T13:32:39;3.54;77.04
14154;DHT22;7157;53.144;7.570;2023-12-04T13:42:42;3.32;80.85
14154;DHT22;7157;53.144;7.570;2023-12-04T13:53:04;3.29;79.31
14154;DHT22;7157;53.144;7.570;2023-12-04T14:03:09;3.18;79.11
14154;DHT22;7157;53.144;7.570;2023-12-04T14:13:13;3.09;80.24
14154;DHT22;7157;53.144;7.570;2023-12-04T14:23:16;3.05;80.64
14154;DHT22;7157;53.144;7.570;2023-12-04T14:33:21;2.95;80.30
14154;DHT22;7157;53.144;7.570;2023-12-04T14:43:24;2.89;81.98
14154;DHT22;7157;53.144;7.570;2023-12-04T14:53:30;2.74;82.87
14154;DHT22;7157;53.144;7.570;2023-12-04T15:03:45;2.64;83.70
14154;DHT22;7157;53.144;7.570;2023-12-04T15:14:27;2.56;83.98
14154;DHT22;7157;53.144;7.570;2023-12-04T15:24:40;2.51;84.25
14154;DHT22;7157;53.144;7.570;2023-12-04T15:34:44;2.60;83.67
14154;DHT22;7157;53.144;7.570;2023-12-04T15:44:47;2.47;84.98
14154;DHT22;7157;53.144;7.570;2023-12-04T15:54:51;2.42;85.27
14154;DHT22;7157;53.144;7.570;2023-12-04T16:04:55;2.46;84.93
14154;DHT22;7157;53.144;7.570;2023-12-04T16:15:05;2.53;84.63
14154;DHT22;7157;53.144;7.570;2023-12-04T16:25:09;2.47;85.05
14154;DHT22;7157;53.144;7.570;2023-12-04T16:35:14;2.43;84.64
14154;DHT22;7157;53.144;7.570;2023-12-04T16:45:17;2.42;84.50
14154;DHT22;7157;53.144;7.570;2023-12-04T16:55:21;2.38;84.90
14154;DHT22;7157;53.144;7.570;2023-12-04T17:05:24;2.44;83.95
14154;DHT22;7157;53.144;7.570;2023-12-04T17:15:30;2.37;83.64
14154;DHT22;7157;53.144;7.570;2023-12-04T17:25:33;2.32;84.03
14154;DHT22;7157;53.144;7.570;2023-12-04T17:35:39;2.29;83.73
14154;DHT22;7157;53.144;7.570;2023-12-04T17:45:42;2.20;84.90
14154;DHT22;7157;53.144;7.570;2023-12-04T17:55:46;2.12;85.87
14154;DHT22;7157;53.144;7.570;2023-12-04T18:05:49;2.19;86.36
14154;DHT22;7157;53.144;7.570;2023-12-04T18:15:53;2.20;87.59
14154;DHT22;7157;53.144;7.570;2023-12-04T18:25:57;2.28;87.96
14154;DHT22;7157;53.144;7.570;2023-12-04T18:36:03;2.38;88.41
14154;DHT22;7157;53.144;7.570;2023-12-04T18:46:08;2.39;89.91
14154;DHT22;7157;53.144;7.570;2023-12-04T18:56:13;2.43;91.19
14154;DHT22;7157;53.144;7.570;2023-12-04T19:06:16;2.37;92.27
14154;DHT22;7157;53.144;7.570;2023-12-04T19:16:20;2.37;92.56
14154;DHT22;7157;53.144;7.570;2023-12-04T19:26:23;2.35;93.17
14154;DHT22;7157;53.144;7.570;2023-12-04T19:36:27;2.21;94.01
14154;DHT22;7157;53.144;7.570;2023-12-04T19:46:30;2.16;93.42
14154;DHT22;7157;53.144;7.570;2023-12-04T19:56:35;2.07;93.40
14154;DHT22;7157;53.144;7.570;2023-12-04T20:06:37;1.86;94.43
14154;DHT22;7157;53.144;7.570;2023-12-04T20:16:43;1.78;94.78
14154;DHT22;7157;53.144;7.570;2023-12-04T20:26:49;1.77;94.76
14154;DHT22;7157;53.144;7.570;2023-12-04T20:36:54;1.82;95.04
14154;DHT22;7157;53.144;7.570;2023-12-04T20:46:57;1.80;95.39
14154;DHT22;7157;53.144;7.570;2023-12-04T20:57:03;1.75;95.82
14154;DHT22;7157;53.144;7.570;2023-12-04T21:07:06;1.70;96.26
14154;DHT22;7157;53.144;7.570;2023-12-04T21:17:17;1.75;96.52
14154;DHT22;7157;53.144;7.570;2023-12-04T21:27:20;1.78;96.87
14154;DHT22;7157;53.144;7.570;2023-12-04T21:37:24;1.97;96.61
14154;DHT22;7157;53.144;7.570;2023-12-04T21:47:27;1.99;96.63
14154;DHT22;7157;53.144;7.570;2023-12-04T21:57:31;2.05;96.20
14154;DHT22;7157;53.144;7.570;2023-12-04T22:07:34;1.92;96.99
14154;DHT22;7157;53.144;7.570;2023-12-04T22:17:38;1.85;97.50
14154;DHT22;7157;53.144;7.570;2023-12-04T22:27:42;1.76;98.68
14154;DHT22;7157;53.144;7.570;2023-12-04T22:37:46;1.54;100.68
14154;DHT22;7157;53.144;7.570;2023-12-04T22:47:49;1.42;102.48
14154;DHT22;7157;53.144;7.570;2023-12-04T22:57:54;1.41;103.11
14154;DHT22;7157;53.144;7.570;2023-12-04T23:07:57;1.33;103.63
14154;DHT22;7157;53.144;7.570;2023-12-04T23:18:01;1.27;103.97
14154;DHT22;7157;53.144;7.570;2023-12-04T23:28:04;1.29;104.05
14154;DHT22;7157;53.144;7.570;2023-12-04T23:38:09;1.24;104.92
14154;DHT22;7157;53.144;7.570;2023-12-04T23:48:12;1.18;105.28
14154;DHT22;7157;53.144;7.570;2023-12-04T23:58:16;1.11;105.96
